sensor_id;sensor_type;location;lat;lon;timestamp;pressure;altitude;pressure_sealevel;temperature;humidity
50133;BME280;46340;53.148;8.204;2022-09-20T00:00:30;101878.94;;;9.33;100.00
50133;BME280;46340;53.148;8.204;2022-09-20T00:02:55;101871.97;;;9.35;100.00
50133;BME280;46340;53.148;8.204;2022-09-20T00:05:20;101873.22;;;9.29;100.00
50133;BME280;46340;53.148;8.204;2022-09-20T00:07:46;101873.97;;;9.21;100.00
50133;BME280;46340;53.148;8.204;2022-09-20T00:10:11;101868.38;;;9.12;100.00
50133;BME280;46340;53.148;8.204;2022-09-20T00:12:37;101867.97;;;9.05;100.00
50133;BME280;46340;53.148;8.204;2022-09-20T00:15:03;101866.75;;;8.97;100.00
50133;BME280;46340;53.148;8.204;2022-09-20T00:17:29;101870.75;;;8.91;100.00
50133;BME280;46340;53.148;8.204;2022-09-20T00:19:54;101870.31;;;8.84;100.00
50133;BME280;46340;53.148;8.204;2022-09-20T00:22:20;101869.50;;;8.83;100.00
50133;BME280;46340;53.148;8.204;2022-09-20T00:24:45;101870.13;;;8.80;100.00
50133;BME280;46340;53.148;8.204;2022-09-20T00:27:11;101865.25;;;8.77;100.00
50133;BME280;46340;53.148;8.204;2022-09-20T00:29:36;101869.72;;;8.73;100.00
50133;BME280;46340;53.148;8.204;2022-09-20T00:32:02;101877.56;;;8.66;100.00
50133;BME280;46340;53.148;8.204;2022-09-20T00:34:27;101880.13;;;8.62;100.00
50133;BME280;46340;53.148;8.204;2022-09-20T00:37:11;101891.03;;;8.68;100.00
50133;BME280;46340;53.148;8.204;2022-09-20T00:39:36;101891.63;;;8.64;100.00
50133;BME280;46340;53.148;8.204;2022-09-20T00:42:02;101886.53;;;8.58;100.00
50133;BME280;46340;53.148;8.204;2022-09-20T00:47:12;101885.31;;;8.50;100.00
50133;BME280;46340;53.148;8.204;2022-09-20T00:49:58;101890.09;;;8.44;100.00
50133;BME280;46340;53.148;8.204;2022-09-20T00:52:31;101893.88;;;8.49;100.00
50133;BME280;46340;53.148;8.204;2022-09-20T00:54:57;101891.31;;;8.52;100.00
50133;BME280;46340;53.148;8.204;2022-09-20T00:57:24;101888.47;;;8.57;100.00
50133;BME280;46340;53.148;8.204;2022-09-20T00:59:50;101890.59;;;8.46;100.00
50133;BME280;46340;53.148;8.204;2022-09-20T01:02:19;101891.22;;;8.43;100.00
50133;BME280;46340;53.148;8.204;2022-09-20T01:04:48;101889.63;;;8.37;100.00
50133;BME280;46340;53.148;8.204;2022-09-20T01:07:15;101900.34;;;8.39;100.00
50133;BME280;46340;53.148;8.204;2022-09-20T01:09:46;101893.22;;;8.38;100.00
50133;BME280;46340;53.148;8.204;2022-09-20T01:12:12;101892.09;;;8.39;100.00
50133;BME280;46340;53.148;8.204;2022-09-20T01:14:41;101896.56;;;8.35;100.00
50133;BME280;46340;53.148;8.204;2022-09-20T01:17:10;101900.13;;;8.35;100.00
50133;BME280;46340;53.148;8.204;2022-09-20T01:28:18;101906.78;;;8.01;100.00
50133;BME280;46340;53.148;8.204;2022-09-20T01:36:24;101913.72;;;7.80;100.00
50133;BME280;46340;53.148;8.204;2022-09-20T01:39:11;101910.81;;;7.71;100.00
50133;BME280;46340;53.148;8.204;2022-09-20T01:41:57;101913.41;;;7.62;100.00
50133;BME280;46340;53.148;8.204;2022-09-20T01:44:31;101912.63;;;7.62;100.00
50133;BME280;46340;53.148;8.204;2022-09-20T02:02:19;101906.69;;;7.55;100.00
50133;BME280;46340;53.148;8.204;2022-09-20T02:15:51;101912.97;;;7.55;100.00
50133;BME280;46340;53.148;8.204;2022-09-20T02:21:40;101913.56;;;7.71;100.00
50133;BME280;46340;53.148;8.204;2022-09-20T02:35:34;101916.53;;;7.75;100.00
50133;BME280;46340;53.148;8.204;2022-09-20T02:43:39;101916.69;;;7.64;100.00
50133;BME280;46340;53.148;8.204;2022-09-20T02:57:32;101940.19;;;7.76;100.00
50133;BME280;46340;53.148;8.204;2022-09-20T03:00:04;101937.88;;;7.83;100.00
50133;BME280;46340;53.148;8.204;2022-09-20T03:05:36;101928.94;;;7.91;100.00
50133;BME280;46340;53.148;8.204;2022-09-20T03:08:37;101939.03;;;7.96;100.00
50133;BME280;46340;53.148;8.204;2022-09-20T03:16:37;101935.13;;;8.16;100.00
50133;BME280;46340;53.148;8.204;2022-09-20T03:24:31;101936.19;;;8.34;100.00
50133;BME280;46340;53.148;8.204;2022-09-20T03:32:24;101942.69;;;8.43;100.00
50133;BME280;46340;53.148;8.204;2022-09-20T03:35:01;101947.06;;;8.44;100.00
50133;BME280;46340;53.148;8.204;2022-09-20T03:42:50;101947.59;;;8.60;100.00
50133;BME280;46340;53.148;8.204;2022-09-20T03:51:43;101942.09;;;8.60;100.00
50133;BME280;46340;53.148;8.204;2022-09-20T04:04:46;101950.47;;;8.55;100.00
50133;BME280;46340;53.148;8.204;2022-09-20T04:10:42;101950.88;;;8.48;100.00
50133;BME280;46340;53.148;8.204;2022-09-20T04:13:14;101943.84;;;8.56;100.00
50133;BME280;46340;53.148;8.204;2022-09-20T04:19:11;101949.25;;;8.61;100.00
50133;BME280;46340;53.148;8.204;2022-09-20T04:21:56;101953.44;;;8.58;100.00
50133;BME280;46340;53.148;8.204;2022-09-20T04:28:01;101957.59;;;8.56;100.00
50133;BME280;46340;53.148;8.204;2022-09-20T04:38:11;101971.41;;;8.18;100.00
50133;BME280;46340;53.148;8.204;2022-09-20T04:41:07;101973.00;;;8.05;100.00
50133;BME280;46340;53.148;8.204;2022-09-20T04:43:50;101975.25;;;8.03;100.00
50133;BME280;46340;53.148;8.204;2022-09-20T07:44:08;102077.13;;;10.49;100.00
50133;BME280;46340;53.148;8.204;2022-09-20T07:46:50;102081.75;;;10.62;100.00
50133;BME280;46340;53.148;8.204;2022-09-20T07:49:21;102088.69;;;10.73;100.00
50133;BME280;46340;53.148;8.204;2022-09-20T07:51:52;102092.50;;;10.86;100.00
50133;BME280;46340;53.148;8.204;2022-09-20T07:54:24;102087.00;;;10.95;100.00
50133;BME280;46340;53.148;8.204;2022-09-20T07:56:53;102076.81;;;10.96;100.00
50133;BME280;46340;53.148;8.204;2022-09-20T07:59:18;102084.59;;;10.94;100.00
50133;BME280;46340;53.148;8.204;2022-09-20T08:01:44;102088.59;;;10.87;100.00
50133;BME280;46340;53.148;8.204;2022-09-20T08:04:09;102085.97;;;10.82;100.00
50133;BME280;46340;53.148;8.204;2022-09-20T08:06:37;102090.41;;;11.15;100.00
50133;BME280;46340;53.148;8.204;2022-09-20T08:09:06;102089.47;;;11.28;100.00
50133;BME280;46340;53.148;8.204;2022-09-20T08:11:33;102092.16;;;11.10;100.00
50133;BME280;46340;53.148;8.204;2022-09-20T08:13:59;102090.94;;;10.94;100.00
50133;BME280;46340;53.148;8.204;2022-09-20T08:16:26;102088.22;;;11.03;100.00
50133;BME280;46340;53.148;8.204;2022-09-20T08:18:56;102087.22;;;10.99;100.00
50133;BME280;46340;53.148;8.204;2022-09-20T08:21:23;102089.59;;;10.91;100.00
50133;BME280;46340;53.148;8.204;2022-09-20T08:23:50;102096.94;;;10.96;100.00
50133;BME280;46340;53.148;8.204;2022-09-20T08:26:16;102100.69;;;11.00;100.00
50133;BME280;46340;53.148;8.204;2022-09-20T08:28:42;102099.38;;;11.20;100.00
50133;BME280;46340;53.148;8.204;2022-09-20T08:31:13;102100.66;;;11.23;100.00
50133;BME280;46340;53.148;8.204;2022-09-20T08:33:38;102108.69;;;11.33;100.00
50133;BME280;46340;53.148;8.204;2022-09-20T08:36:13;102109.88;;;11.41;100.00
50133;BME280;46340;53.148;8.204;2022-09-20T08:38:40;102097.31;;;11.35;100.00
50133;BME280;46340;53.148;8.204;2022-09-20T08:41:09;102110.41;;;11.52;100.00
50133;BME280;46340;53.148;8.204;2022-09-20T08:43:42;102104.78;;;11.74;100.00
50133;BME280;46340;53.148;8.204;2022-09-20T08:46:10;102109.38;;;11.88;100.00
50133;BME280;46340;53.148;8.204;2022-09-20T08:48:36;102100.66;;;11.94;100.00
50133;BME280;46340;53.148;8.204;2022-09-20T08:51:02;102109.13;;;12.07;100.00
50133;BME280;46340;53.148;8.204;2022-09-20T08:53:29;102113.03;;;12.14;100.00
50133;BME280;46340;53.148;8.204;2022-09-20T08:55:55;102120.56;;;12.31;100.00
50133;BME280;46340;53.148;8.204;2022-09-20T08:58:24;102114.22;;;12.39;100.00
50133;BME280;46340;53.148;8.204;2022-09-20T09:00:50;102126.72;;;12.28;100.00
50133;BME280;46340;53.148;8.204;2022-09-20T09:03:16;102125.13;;;12.27;100.00
50133;BME280;46340;53.148;8.204;2022-09-20T09:05:46;102116.81;;;12.45;100.00
50133;BME280;46340;53.148;8.204;2022-09-20T09:08:15;102123.16;;;12.63;100.00
50133;BME280;46340;53.148;8.204;2022-09-20T09:10:47;102117.47;;;12.59;100.00
50133;BME280;46340;53.148;8.204;2022-09-20T09:13:31;102117.31;;;12.38;100.00
50133;BME280;46340;53.148;8.204;2022-09-20T09:16:08;102115.50;;;12.25;100.00
50133;BME280;46340;53.148;8.204;2022-09-20T09:18:36;102124.97;;;12.32;100.00
50133;BME280;46340;53.148;8.204;2022-09-20T09:21:05;102118.94;;;12.30;100.00
50133;BME280;46340;53.148;8.204;2022-09-20T09:23:40;102122.97;;;12.15;100.00
50133;BME280;46340;53.148;8.204;2022-09-20T09:26:16;102119.41;;;12.23;100.00
50133;BME280;46340;53.148;8.204;2022-09-20T09:29:06;102131.00;;;12.34;100.00
50133;BME280;46340;53.148;8.204;2022-09-20T09:31:46;102129.03;;;12.44;100.00
50133;BME280;46340;53.148;8.204;2022-09-20T09:34:23;102122.34;;;12.71;100.00
50133;BME280;46340;53.148;8.204;2022-09-20T09:36:57;102121.53;;;12.88;100.00
50133;BME280;46340;53.148;8.204;2022-09-20T09:41:56;102128.50;;;12.94;100.00
50133;BME280;46340;53.148;8.204;2022-09-20T09:44:26;102130.41;;;13.28;100.00
50133;BME280;46340;53.148;8.204;2022-09-20T09:46:59;102129.47;;;13.15;100.00
50133;BME280;46340;53.148;8.204;2022-09-20T09:49:26;102126.50;;;13.38;100.00
50133;BME280;46340;53.148;8.204;2022-09-20T09:54:39;102137.44;;;13.17;100.00
50133;BME280;46340;53.148;8.204;2022-09-20T10:02:26;102132.09;;;13.03;100.00
50133;BME280;46340;53.148;8.204;2022-09-20T10:05:13;102129.63;;;13.19;100.00
50133;BME280;46340;53.148;8.204;2022-09-20T10:14:10;102119.91;;;14.53;100.00
50133;BME280;46340;53.148;8.204;2022-09-20T10:19:55;102122.88;;;14.06;100.00
50133;BME280;46340;53.148;8.204;2022-09-20T10:25:45;102126.81;;;14.05;100.00
50133;BME280;46340;53.148;8.204;2022-09-20T10:31:13;102124.47;;;13.86;100.00
50133;BME280;46340;53.148;8.204;2022-09-20T10:39:36;102129.22;;;15.82;100.00
50133;BME280;46340;53.148;8.204;2022-09-20T10:45:18;102128.41;;;16.87;100.00
50133;BME280;46340;53.148;8.204;2022-09-20T10:48:16;102120.88;;;17.20;100.00
50133;BME280;46340;53.148;8.204;2022-09-20T10:51:06;102122.97;;;17.39;100.00
50133;BME280;46340;53.148;8.204;2022-09-20T10:56:44;102124.91;;;16.90;100.00
50133;BME280;46340;53.148;8.204;2022-09-20T11:05:01;102121.13;;;18.85;100.00
50133;BME280;46340;53.148;8.204;2022-09-20T11:10:20;102123.31;;;20.14;100.00
50133;BME280;46340;53.148;8.204;2022-09-20T11:12:57;102134.41;;;19.34;100.00
50133;BME280;46340;53.148;8.204;2022-09-20T11:15:31;102135.94;;;17.31;100.00
50133;BME280;46340;53.148;8.204;2022-09-20T11:21:17;102171.41;;;14.59;100.00
50133;BME280;46340;53.148;8.204;2022-09-20T11:23:51;102171.34;;;13.40;100.00
50133;BME280;46340;53.148;8.204;2022-09-20T11:29:39;102181.47;;;12.22;100.00
50133;BME280;46340;53.148;8.204;2022-09-20T13:05:43;102159.56;;;18.88;100.00
50133;BME280;46340;53.148;8.204;2022-09-20T13:08:19;102164.44;;;18.75;100.00
50133;BME280;46340;53.148;8.204;2022-09-20T13:13:47;102156.19;;;19.67;100.00
50133;BME280;46340;53.148;8.204;2022-09-20T13:16:20;102154.69;;;19.73;100.00
50133;BME280;46340;53.148;8.204;2022-09-20T13:18:53;102159.06;;;20.51;100.00
50133;BME280;46340;53.148;8.204;2022-09-20T13:21:26;102152.31;;;21.65;100.00
50133;BME280;46340;53.148;8.204;2022-09-20T13:23:52;102148.84;;;21.86;100.00
50133;BME280;46340;53.148;8.204;2022-09-20T13:26:21;102157.88;;;21.61;100.00
50133;BME280;46340;53.148;8.204;2022-09-20T13:28:53;102164.47;;;19.14;100.00
50133;BME280;46340;53.148;8.204;2022-09-20T13:37:34;102198.59;;;13.29;100.00
50133;BME280;46340;53.148;8.204;2022-09-20T14:21:30;102203.88;;;13.78;100.00
50133;BME280;46340;53.148;8.204;2022-09-20T14:23:57;102208.66;;;13.69;100.00
50133;BME280;46340;53.148;8.204;2022-09-20T14:26:37;102216.41;;;13.37;100.00
50133;BME280;46340;53.148;8.204;2022-09-20T14:34:57;102215.13;;;12.82;100.00
50133;BME280;46340;53.148;8.204;2022-09-20T14:42:47;102229.00;;;12.16;100.00
50133;BME280;46340;53.148;8.204;2022-09-20T14:48:00;102237.63;;;11.52;100.00
50133;BME280;46340;53.148;8.204;2022-09-20T14:50:41;102241.75;;;11.32;100.00
50133;BME280;46340;53.148;8.204;2022-09-20T14:55:39;102229.63;;;11.19;100.00
50133;BME280;46340;53.148;8.204;2022-09-20T14:58:18;102225.22;;;11.18;100.00
50133;BME280;46340;53.148;8.204;2022-09-20T15:01:15;102222.63;;;11.44;100.00
50133;BME280;46340;53.148;8.204;2022-09-20T15:03:48;102210.44;;;11.45;100.00
50133;BME280;46340;53.148;8.204;2022-09-20T15:06:15;102212.88;;;11.46;100.00
50133;BME280;46340;53.148;8.204;2022-09-20T15:08:40;102212.13;;;11.55;100.00
50133;BME280;46340;53.148;8.204;2022-09-20T15:11:10;102212.44;;;11.53;100.00
50133;BME280;46340;53.148;8.204;2022-09-20T15:13:38;102217.66;;;11.55;100.00
50133;BME280;46340;53.148;8.204;2022-09-20T15:16:03;102220.19;;;11.42;100.00
50133;BME280;46340;53.148;8.204;2022-09-20T15:18:39;102218.16;;;11.57;100.00
50133;BME280;46340;53.148;8.204;2022-09-20T15:21:06;102220.72;;;11.53;100.00
50133;BME280;46340;53.148;8.204;2022-09-20T15:23:31;102231.94;;;11.48;100.00
50133;BME280;46340;53.148;8.204;2022-09-20T15:25:57;102234.00;;;11.42;100.00
50133;BME280;46340;53.148;8.204;2022-09-20T15:28:22;102227.03;;;11.45;100.00
50133;BME280;46340;53.148;8.204;2022-09-20T15:30:48;102229.59;;;11.41;100.00
50133;BME280;46340;53.148;8.204;2022-09-20T15:33:15;102224.38;;;11.40;100.00
50133;BME280;46340;53.148;8.204;2022-09-20T15:35:42;102233.69;;;11.44;100.00
50133;BME280;46340;53.148;8.204;2022-09-20T15:38:08;102230.81;;;11.49;100.00
50133;BME280;46340;53.148;8.204;2022-09-20T15:40:42;102231.94;;;11.79;100.00
50133;BME280;46340;53.148;8.204;2022-09-20T15:43:11;102235.41;;;13.65;100.00
50133;BME280;46340;53.148;8.204;2022-09-20T15:45:47;102219.13;;;14.82;100.00
50133;BME280;46340;53.148;8.204;2022-09-20T15:48:15;102212.84;;;15.73;100.00
50133;BME280;46340;53.148;8.204;2022-09-20T15:50:58;102212.75;;;16.31;100.00
50133;BME280;46340;53.148;8.204;2022-09-20T15:53:31;102205.09;;;16.28;100.00
50133;BME280;46340;53.148;8.204;2022-09-20T15:55:58;102206.59;;;17.19;100.00
50133;BME280;46340;53.148;8.204;2022-09-20T15:58:28;102211.78;;;17.49;100.00
50133;BME280;46340;53.148;8.204;2022-09-20T16:01:00;102203.69;;;16.34;100.00
50133;BME280;46340;53.148;8.204;2022-09-20T16:03:29;102211.47;;;15.79;100.00
50133;BME280;46340;53.148;8.204;2022-09-20T16:05:58;102209.41;;;17.35;100.00
50133;BME280;46340;53.148;8.204;2022-09-20T16:08:25;102205.91;;;18.34;100.00
50133;BME280;46340;53.148;8.204;2022-09-20T16:10:55;102207.94;;;18.88;100.00
50133;BME280;46340;53.148;8.204;2022-09-20T16:13:23;102206.47;;;20.06;100.00
50133;BME280;46340;53.148;8.204;2022-09-20T16:15:56;102215.63;;;19.34;100.00
50133;BME280;46340;53.148;8.204;2022-09-20T16:18:23;102216.22;;;20.13;100.00
50133;BME280;46340;53.148;8.204;2022-09-20T16:21:08;102220.03;;;20.27;100.00
50133;BME280;46340;53.148;8.204;2022-09-20T16:23:36;102222.19;;;20.11;100.00
50133;BME280;46340;53.148;8.204;2022-09-20T16:26:03;102223.81;;;18.49;100.00
50133;BME280;46340;53.148;8.204;2022-09-20T16:28:31;102231.03;;;17.98;100.00
50133;BME280;46340;53.148;8.204;2022-09-20T16:30:57;102230.19;;;17.66;100.00
50133;BME280;46340;53.148;8.204;2022-09-20T16:33:23;102232.66;;;18.51;100.00
50133;BME280;46340;53.148;8.204;2022-09-20T16:35:49;102234.34;;;18.36;100.00
50133;BME280;46340;53.148;8.204;2022-09-20T16:38:14;102233.38;;;16.67;100.00
50133;BME280;46340;53.148;8.204;2022-09-20T16:40:40;102243.34;;;15.36;100.00
50133;BME280;46340;53.148;8.204;2022-09-20T16:43:06;102241.97;;;14.37;100.00
50133;BME280;46340;53.148;8.204;2022-09-20T16:45:33;102251.25;;;13.64;100.00
50133;BME280;46340;53.148;8.204;2022-09-20T16:47:58;102243.66;;;13.17;100.00
50133;BME280;46340;53.148;8.204;2022-09-20T16:50:26;102253.56;;;12.75;100.00
50133;BME280;46340;53.148;8.204;2022-09-20T16:52:52;102259.56;;;12.51;100.00
50133;BME280;46340;53.148;8.204;2022-09-20T16:55:17;102256.13;;;12.45;100.00
50133;BME280;46340;53.148;8.204;2022-09-20T16:57:47;102263.94;;;12.34;100.00
50133;BME280;46340;53.148;8.204;2022-09-20T17:00:13;102271.53;;;12.11;100.00
50133;BME280;46340;53.148;8.204;2022-09-20T17:02:40;102268.03;;;11.97;100.00
50133;BME280;46340;53.148;8.204;2022-09-20T17:05:06;102270.66;;;11.79;100.00
50133;BME280;46340;53.148;8.204;2022-09-20T17:07:32;102268.16;;;11.69;100.00
50133;BME280;46340;53.148;8.204;2022-09-20T17:09:57;102270.56;;;11.62;100.00
50133;BME280;46340;53.148;8.204;2022-09-20T17:12:25;102282.69;;;11.52;100.00
50133;BME280;46340;53.148;8.204;2022-09-20T17:14:55;102284.41;;;11.39;100.00
50133;BME280;46340;53.148;8.204;2022-09-20T17:17:20;102286.94;;;11.27;100.00
50133;BME280;46340;53.148;8.204;2022-09-20T17:19:46;102286.91;;;11.04;100.00
50133;BME280;46340;53.148;8.204;2022-09-20T17:22:12;102290.41;;;10.96;100.00
50133;BME280;46340;53.148;8.204;2022-09-20T17:24:37;102292.59;;;10.85;100.00
50133;BME280;46340;53.148;8.204;2022-09-20T17:27:03;102302.53;;;10.72;100.00
50133;BME280;46340;53.148;8.204;2022-09-20T17:29:28;102299.16;;;10.62;100.00
50133;BME280;46340;53.148;8.204;2022-09-20T17:31:54;102302.97;;;10.52;100.00
50133;BME280;46340;53.148;8.204;2022-09-20T17:34:23;102302.03;;;10.43;100.00
50133;BME280;46340;53.148;8.204;2022-09-20T17:36:50;102302.50;;;10.31;100.00
50133;BME280;46340;53.148;8.204;2022-09-20T17:39:16;102308.22;;;10.21;100.00
50133;BME280;46340;53.148;8.204;2022-09-20T17:41:43;102306.00;;;10.09;100.00
50133;BME280;46340;53.148;8.204;2022-09-20T17:44:10;102313.63;;;9.98;100.00
50133;BME280;46340;53.148;8.204;2022-09-20T17:46:36;102311.03;;;9.88;100.00
50133;BME280;46340;53.148;8.204;2022-09-20T17:49:04;102315.53;;;9.84;100.00
50133;BME280;46340;53.148;8.204;2022-09-20T17:51:36;102316.44;;;9.79;100.00
50133;BME280;46340;53.148;8.204;2022-09-20T17:54:06;102322.34;;;9.72;100.00
50133;BME280;46340;53.148;8.204;2022-09-20T17:56:32;102320.00;;;9.66;100.00
50133;BME280;46340;53.148;8.204;2022-09-20T17:59:03;102323.13;;;9.59;100.00
50133;BME280;46340;53.148;8.204;2022-09-20T18:01:30;102336.50;;;9.52;100.00
50133;BME280;46340;53.148;8.204;2022-09-20T18:03:58;102342.69;;;9.44;100.00
50133;BME280;46340;53.148;8.204;2022-09-20T18:06:26;102336.09;;;9.39;100.00
50133;BME280;46340;53.148;8.204;2022-09-20T18:08:55;102347.81;;;9.31;100.00
50133;BME280;46340;53.148;8.204;2022-09-20T18:11:23;102354.22;;;9.27;100.00
50133;BME280;46340;53.148;8.204;2022-09-20T18:13:52;102351.03;;;9.19;100.00
50133;BME280;46340;53.148;8.204;2022-09-20T18:16:17;102350.88;;;9.11;100.00
50133;BME280;46340;53.148;8.204;2022-09-20T18:18:43;102347.16;;;9.01;100.00
50133;BME280;46340;53.148;8.204;2022-09-20T18:21:19;102360.22;;;8.91;100.00
50133;BME280;46340;53.148;8.204;2022-09-20T18:35:37;102372.91;;;8.68;100.00
50133;BME280;46340;53.148;8.204;2022-09-20T18:38:06;102377.38;;;8.63;100.00
50133;BME280;46340;53.148;8.204;2022-09-20T18:40:32;102373.09;;;8.52;100.00
50133;BME280;46340;53.148;8.204;2022-09-20T18:43:00;102375.59;;;8.49;100.00
50133;BME280;46340;53.148;8.204;2022-09-20T18:45:25;102374.84;;;8.43;100.00
50133;BME280;46340;53.148;8.204;2022-09-20T18:47:51;102376.78;;;8.37;100.00
50133;BME280;46340;53.148;8.204;2022-09-20T18:50:23;102375.44;;;8.35;100.00
50133;BME280;46340;53.148;8.204;2022-09-20T18:52:50;102384.28;;;8.32;100.00
50133;BME280;46340;53.148;8.204;2022-09-20T18:55:16;102382.34;;;8.32;100.00
50133;BME280;46340;53.148;8.204;2022-09-20T18:57:42;102384.00;;;8.33;100.00
50133;BME280;46340;53.148;8.204;2022-09-20T19:00:08;102389.50;;;8.33;100.00
50133;BME280;46340;53.148;8.204;2022-09-20T19:03:22;102392.25;;;8.33;100.00
50133;BME280;46340;53.148;8.204;2022-09-20T19:05:43;102393.09;;;8.28;100.00
50133;BME280;46340;53.148;8.204;2022-09-20T19:10:59;102403.34;;;8.23;100.00
50133;BME280;46340;53.148;8.204;2022-09-20T19:18:57;102412.88;;;8.06;100.00
50133;BME280;46340;53.148;8.204;2022-09-20T19:24:30;102413.53;;;7.93;100.00
50133;BME280;46340;53.148;8.204;2022-09-20T19:27:08;102413.03;;;7.86;100.00
50133;BME280;46340;53.148;8.204;2022-09-20T19:29:36;102424.59;;;7.83;100.00
50133;BME280;46340;53.148;8.204;2022-09-20T19:32:03;102415.28;;;7.79;100.00
50133;BME280;46340;53.148;8.204;2022-09-20T19:34:29;102429.59;;;7.76;100.00
50133;BME280;46340;53.148;8.204;2022-09-20T19:40:17;102432.16;;;7.67;100.00
50133;BME280;46340;53.148;8.204;2022-09-20T19:46:01;102434.97;;;7.57;100.00
50133;BME280;46340;53.148;8.204;2022-09-20T19:48:39;102437.47;;;7.48;100.00
50133;BME280;46340;53.148;8.204;2022-09-20T19:51:10;102445.75;;;7.43;100.00
50133;BME280;46340;53.148;8.204;2022-09-20T19:53:37;102441.38;;;7.37;100.00
50133;BME280;46340;53.148;8.204;2022-09-20T19:56:12;102445.28;;;7.30;100.00
50133;BME280;46340;53.148;8.204;2022-09-20T19:58:47;102449.66;;;7.26;100.00
50133;BME280;46340;53.148;8.204;2022-09-20T20:01:17;102452.13;;;7.28;100.00
50133;BME280;46340;53.148;8.204;2022-09-20T20:03:43;102451.88;;;7.29;100.00
50133;BME280;46340;53.148;8.204;2022-09-20T20:06:15;102451.06;;;7.24;100.00
50133;BME280;46340;53.148;8.204;2022-09-20T20:08:49;102457.69;;;7.18;100.00
50133;BME280;46340;53.148;8.204;2022-09-20T20:14:34;102454.44;;;7.05;100.00
50133;BME280;46340;53.148;8.204;2022-09-20T20:27:56;102459.16;;;6.94;100.00
50133;BME280;46340;53.148;8.204;2022-09-20T20:30:22;102465.19;;;6.91;100.00
50133;BME280;46340;53.148;8.204;2022-09-20T20:32:47;102464.38;;;6.91;100.00
50133;BME280;46340;53.148;8.204;2022-09-20T20:35:12;102462.72;;;6.90;100.00
50133;BME280;46340;53.148;8.204;2022-09-20T20:37:38;102467.69;;;6.88;100.00
50133;BME280;46340;53.148;8.204;2022-09-20T20:40:04;102468.75;;;6.87;100.00
50133;BME280;46340;53.148;8.204;2022-09-20T20:42:30;102474.84;;;6.84;100.00
50133;BME280;46340;53.148;8.204;2022-09-20T20:44:56;102471.81;;;6.80;100.00
50133;BME280;46340;53.148;8.204;2022-09-20T20:47:22;102472.38;;;6.77;100.00
50133;BME280;46340;53.148;8.204;2022-09-20T20:49:48;102474.59;;;6.75;100.00
50133;BME280;46340;53.148;8.204;2022-09-20T20:52:17;102479.50;;;6.73;100.00
50133;BME280;46340;53.148;8.204;2022-09-20T20:54:42;102475.41;;;6.70;100.00
50133;BME280;46340;53.148;8.204;2022-09-20T20:57:07;102474.59;;;6.65;100.00
50133;BME280;46340;53.148;8.204;2022-09-20T20:59:33;102478.16;;;6.60;100.00
50133;BME280;46340;53.148;8.204;2022-09-20T21:01:58;102473.78;;;6.54;100.00
50133;BME280;46340;53.148;8.204;2022-09-20T21:04:24;102482.84;;;6.49;100.00
50133;BME280;46340;53.148;8.204;2022-09-20T21:06:51;102476.25;;;6.40;100.00
50133;BME280;46340;53.148;8.204;2022-09-20T21:09:16;102482.59;;;6.40;100.00
50133;BME280;46340;53.148;8.204;2022-09-20T21:11:42;102482.59;;;6.35;100.00
50133;BME280;46340;53.148;8.204;2022-09-20T21:14:08;102485.06;;;6.37;100.00
50133;BME280;46340;53.148;8.204;2022-09-20T21:16:35;102488.34;;;6.44;100.00
50133;BME280;46340;53.148;8.204;2022-09-20T21:19:02;102492.19;;;6.38;100.00
50133;BME280;46340;53.148;8.204;2022-09-20T21:21:31;102494.91;;;6.33;100.00
50133;BME280;46340;53.148;8.204;2022-09-20T21:24:04;102491.38;;;6.27;100.00
50133;BME280;46340;53.148;8.204;2022-09-20T21:26:31;102490.81;;;6.25;100.00
50133;BME280;46340;53.148;8.204;2022-09-20T21:28:59;102499.59;;;6.22;100.00
50133;BME280;46340;53.148;8.204;2022-09-20T21:31:27;102492.75;;;6.19;100.00
50133;BME280;46340;53.148;8.204;2022-09-20T21:33:54;102493.56;;;6.15;100.00
50133;BME280;46340;53.148;8.204;2022-09-20T21:36:22;102496.84;;;6.12;100.00
50133;BME280;46340;53.148;8.204;2022-09-20T21:38:49;102500.66;;;6.11;100.00
50133;BME280;46340;53.148;8.204;2022-09-20T21:41:19;102496.28;;;6.10;100.00
50133;BME280;46340;53.148;8.204;2022-09-20T21:43:46;102500.13;;;6.09;100.00
50133;BME280;46340;53.148;8.204;2022-09-20T21:46:16;102502.31;;;6.07;100.00
50133;BME280;46340;53.148;8.204;2022-09-20T21:48:44;102501.50;;;6.06;100.00
50133;BME280;46340;53.148;8.204;2022-09-20T21:51:12;102507.25;;;5.99;100.00
50133;BME280;46340;53.148;8.204;2022-09-20T21:53:42;102507.22;;;5.94;100.00
50133;BME280;46340;53.148;8.204;2022-09-20T21:56:09;102508.59;;;5.92;100.00
50133;BME280;46340;53.148;8.204;2022-09-20T21:58:36;102505.84;;;5.92;100.00
50133;BME280;46340;53.148;8.204;2022-09-20T22:01:06;102513.75;;;5.88;100.00
50133;BME280;46340;53.148;8.204;2022-09-20T22:03:34;102516.81;;;5.87;100.00
50133;BME280;46340;53.148;8.204;2022-09-20T22:06:09;102516.22;;;5.84;100.00
50133;BME280;46340;53.148;8.204;2022-09-20T22:08:37;102509.94;;;5.84;100.00
50133;BME280;46340;53.148;8.204;2022-09-20T22:11:05;102513.47;;;5.79;100.00
50133;BME280;46340;53.148;8.204;2022-09-20T22:13:32;102505.81;;;5.76;100.00
50133;BME280;46340;53.148;8.204;2022-09-20T22:16:04;102522.28;;;5.81;100.00
50133;BME280;46340;53.148;8.204;2022-09-20T22:18:33;102519.22;;;5.78;100.00
50133;BME280;46340;53.148;8.204;2022-09-20T22:21:04;102515.38;;;5.74;100.00
50133;BME280;46340;53.148;8.204;2022-09-20T22:23:32;102525.00;;;5.71;100.00
50133;BME280;46340;53.148;8.204;2022-09-20T22:25:58;102525.53;;;5.68;100.00
50133;BME280;46340;53.148;8.204;2022-09-20T22:28:25;102528.78;;;5.65;100.00